Time;durP1;ratioP1;P1;durP2;ratioP2;P2;SDS_P1;SDS_P2;PMS_P1;PMS_P2;Temp;Humidity;BMP_temperature;BMP_pressure;BME280_temperature;BME280_humidity;BME280_pressure;Samples;Min_cycle;Max_cycle;Signal;HPM_P1;HPM_P2
2022/11/21 00:04:14;;;;;;;4.25;0.90;;;;;;;;;;10225530;28;20065;-79
2022/11/21 00:09:18;;;;;;;4.57;0.95;;;;;;;;;;10245987;28;20046;-79
2022/11/21 00:14:22;;;;;;;5.03;1.15;;;;;;;;;;10271246;28;20039;-79
2022/11/21 00:19:25;;;;;;;4.03;1.23;;;;;;;;;;10219824;28;20316;-80
2022/11/21 00:24:30;;;;;;;4.18;1.10;;;;;;;;;;10230419;28;20111;-79
2022/11/21 00:29:33;;;;;;;2.45;1.02;;;;;;;;;;10238352;28;20451;-79
2022/11/21 00:34:37;;;;;;;6.82;1.33;;;;;;;;;;10228164;28;20061;-80
2022/11/21 00:39:42;;;;;;;7.97;1.70;;;;;;;;;;10235378;28;20101;-80
2022/11/21 00:44:45;;;;;;;7.30;2.22;;;;;;;;;;10253775;28;20045;-79
2022/11/21 00:49:49;;;;;;;7.97;1.98;;;;;;;;;;10237534;28;20047;-79
2022/11/21 00:54:53;;;;;;;8.30;1.60;;;;;;;;;;10251917;28;20041;-80
2022/11/21 00:59:57;;;;;;;7.65;1.67;;;;;;;;;;10231436;28;20051;-79
2022/11/21 01:05:00;;;;;;;4.45;1.35;;;;;;;;;;10229686;28;20475;-79
2022/11/21 01:10:06;;;;;;;6.20;1.42;;;;;;;;;;10268112;28;20250;-80
2022/11/21 01:15:10;;;;;;;7.88;1.65;;;;;;;;;;10239712;28;20459;-81
2022/11/21 01:20:14;;;;;;;7.93;2.35;;;;;;;;;;10225775;28;20058;-79
2022/11/21 01:25:19;;;;;;;9.48;1.60;;;;;;;;;;10250784;28;20442;-80
2022/11/21 01:30:22;;;;;;;9.88;2.00;;;;;;;;;;10248805;28;20045;-80
2022/11/21 01:35:26;;;;;;;9.20;1.65;;;;;;;;;;10237790;28;20114;-80
2022/11/21 01:40:37;;;;;;;7.70;2.00;;;;;;;;;;10242630;28;20054;-79
2022/11/21 01:46:06;;;;;;;6.78;1.80;;;;;;;;;;10237355;28;20049;-80
2022/11/21 01:51:15;;;;;;;9.25;2.20;;;;;;;;;;10195892;28;20066;-84
2022/11/21 01:56:20;;;;;;;9.23;2.30;;;;;;;;;;10227471;28;20484;-82
2022/11/21 02:01:24;;;;;;;9.93;2.22;;;;;;;;;;10226965;28;20046;-81
2022/11/21 02:06:29;;;;;;;10.60;1.90;;;;;;;;;;10218903;28;20114;-81
2022/11/21 02:11:38;;;;;;;3.85;1.42;;;;;;;;;;10234921;28;20047;-81
2022/11/21 02:16:42;;;;;;;3.78;1.85;;;;;;;;;;10220461;28;20155;-82
2022/11/21 02:21:52;;;;;;;6.40;2.33;;;;;;;;;;10202206;28;20055;-82
2022/11/21 02:26:57;;;;;;;7.82;2.67;;;;;;;;;;10220826;28;20431;-82
2022/11/21 02:32:04;;;;;;;10.23;2.00;;;;;;;;;;10211868;28;20074;-81
2022/11/21 02:37:08;;;;;;;;;;;;;;;;;;10213919;28;20055;-82
2022/11/21 02:42:20;;;;;;;7.95;2.13;;;;;;;;;;10210249;28;20125;-81
2022/11/21 02:47:24;;;;;;;8.35;2.72;;;;;;;;;;10208923;28;20058;-80
2022/11/21 02:52:28;;;;;;;10.90;2.42;;;;;;;;;;10229401;28;20426;-81
2022/11/21 02:57:32;;;;;;;7.32;2.10;;;;;;;;;;10218630;28;20059;-81
2022/11/21 03:02:36;;;;;;;9.13;2.15;;;;;;;;;;10215537;28;20051;-81
2022/11/21 03:07:40;;;;;;;6.60;1.90;;;;;;;;;;10207119;28;20518;-81
2022/11/21 03:12:45;;;;;;;5.13;1.92;;;;;;;;;;10223759;28;20538;-82
2022/11/21 03:17:49;;;;;;;8.63;2.72;;;;;;;;;;10207495;28;20047;-83
2022/11/21 03:22:52;;;;;;;10.90;2.65;;;;;;;;;;10212556;28;20043;-82
2022/11/21 03:27:57;;;;;;;7.47;1.75;;;;;;;;;;10220224;28;20050;-83
2022/11/21 03:33:01;;;;;;;7.72;2.10;;;;;;;;;;10230538;28;20051;-81
2022/11/21 03:38:04;;;;;;;7.80;2.15;;;;;;;;;;10210558;28;20066;-81
2022/11/21 03:43:09;;;;;;;4.65;1.23;;;;;;;;;;10219749;28;20057;-79
2022/11/21 03:48:13;;;;;;;6.78;1.67;;;;;;;;;;10223085;28;20043;-79
2022/11/21 03:53:16;;;;;;;5.38;2.05;;;;;;;;;;10210485;28;20062;-79
2022/11/21 03:58:20;;;;;;;7.07;2.03;;;;;;;;;;10178702;29;20043;-78
2022/11/21 04:03:24;;;;;;;9.18;2.08;;;;;;;;;;10175560;29;20532;-79
2022/11/21 04:08:28;;;;;;;6.22;1.60;;;;;;;;;;10175073;29;20070;-81
2022/11/21 04:13:34;;;;;;;8.02;1.60;;;;;;;;;;10175042;29;20055;-79
2022/11/21 04:18:37;;;;;;;9.77;2.38;;;;;;;;;;10174298;29;20059;-81
2022/11/21 04:23:41;;;;;;;4.63;1.75;;;;;;;;;;10172377;29;20448;-79
2022/11/21 04:28:45;;;;;;;8.48;2.05;;;;;;;;;;10169061;29;20455;-79
2022/11/21 04:33:49;;;;;;;6.30;1.45;;;;;;;;;;10190445;29;20198;-80
2022/11/21 04:38:52;;;;;;;4.85;1.35;;;;;;;;;;10172101;29;20440;-80
2022/11/21 04:43:57;;;;;;;2.35;1.33;;;;;;;;;;10173556;29;20043;-79
2022/11/21 04:49:00;;;;;;;5.22;1.65;;;;;;;;;;10179953;29;20051;-79
2022/11/21 04:54:04;;;;;;;7.22;1.75;;;;;;;;;;10191623;28;20044;-79
2022/11/21 04:59:10;;;;;;;5.00;1.42;;;;;;;;;;10212030;28;20047;-79
2022/11/21 05:04:14;;;;;;;4.15;1.20;;;;;;;;;;10218015;28;20043;-79
2022/11/21 05:09:17;;;;;;;6.68;1.50;;;;;;;;;;10219335;28;20051;-80
2022/11/21 05:14:24;;;;;;;2.45;1.00;;;;;;;;;;10243309;28;20054;-82
2022/11/21 05:19:28;;;;;;;4.20;1.20;;;;;;;;;;10232819;28;20047;-82
2022/11/21 05:24:31;;;;;;;3.65;1.15;;;;;;;;;;10228874;28;20054;-80
2022/11/21 05:29:36;;;;;;;2.72;1.00;;;;;;;;;;10206725;28;20049;-81
2022/11/21 05:34:39;;;;;;;1.80;1.02;;;;;;;;;;10219343;28;20051;-81
2022/11/21 05:39:43;;;;;;;1.83;0.95;;;;;;;;;;10204442;28;20126;-81
2022/11/21 05:44:48;;;;;;;2.63;1.05;;;;;;;;;;10224811;28;20592;-80
2022/11/21 05:49:51;;;;;;;1.63;1.20;;;;;;;;;;10204530;28;20062;-81
2022/11/21 05:54:54;;;;;;;5.78;1.27;;;;;;;;;;10226103;28;20459;-80
2022/11/21 05:59:59;;;;;;;3.63;1.00;;;;;;;;;;10229613;28;20467;-80
2022/11/21 06:05:03;;;;;;;2.45;0.98;;;;;;;;;;10220582;28;20040;-80
2022/11/21 06:10:06;;;;;;;2.70;1.10;;;;;;;;;;10223861;28;20051;-80
2022/11/21 06:15:11;;;;;;;2.35;1.00;;;;;;;;;;10241101;28;20512;-88
2022/11/21 06:20:15;;;;;;;4.38;0.93;;;;;;;;;;10226067;28;20085;-83
2022/11/21 06:25:18;;;;;;;2.40;1.10;;;;;;;;;;10230650;28;20632;-83
2022/11/21 06:30:23;;;;;;;3.13;1.15;;;;;;;;;;10213117;28;20046;-84
2022/11/21 06:35:27;;;;;;;2.80;1.00;;;;;;;;;;10212205;28;20585;-84
2022/11/21 06:40:30;;;;;;;2.08;1.20;;;;;;;;;;10209828;28;20054;-84
2022/11/21 06:45:35;;;;;;;4.53;1.30;;;;;;;;;;10222472;28;20047;-83
2022/11/21 06:50:38;;;;;;;5.00;1.30;;;;;;;;;;10222078;28;20232;-83
2022/11/21 06:55:42;;;;;;;2.75;1.10;;;;;;;;;;10209464;28;20047;-83
2022/11/21 07:00:47;;;;;;;2.03;1.20;;;;;;;;;;10212395;28;20047;-81
2022/11/21 07:05:52;;;;;;;2.28;1.10;;;;;;;;;;10232788;28;20053;-80
2022/11/21 07:10:55;;;;;;;2.03;1.30;;;;;;;;;;10210073;28;20058;-87
2022/11/21 07:16:20;;;;;;;1.00;0.63;;;;;;;;;;10218895;28;20039;-82
2022/11/21 07:21:24;;;;;;;3.50;0.70;;;;;;;;;;10210193;28;20140;-82
2022/11/21 07:26:27;;;;;;;2.45;0.95;;;;;;;;;;10209632;28;20543;-83
2022/11/21 07:31:32;;;;;;;3.63;1.35;;;;;;;;;;10219586;28;20508;-81
2022/11/21 07:36:35;;;;;;;2.70;0.90;;;;;;;;;;10218393;28;20424;-82
2022/11/21 07:41:39;;;;;;;2.13;1.15;;;;;;;;;;10224305;28;20410;-82
2022/11/21 07:46:44;;;;;;;2.17;1.17;;;;;;;;;;10208803;28;20043;-82
2022/11/21 07:51:48;;;;;;;2.67;1.38;;;;;;;;;;10208350;28;20063;-82
2022/11/21 07:56:51;;;;;;;1.98;1.00;;;;;;;;;;10215158;28;20043;-81
2022/11/21 08:01:56;;;;;;;1.88;1.20;;;;;;;;;;10207717;28;20058;-81
2022/11/21 08:07:00;;;;;;;2.72;1.15;;;;;;;;;;10229731;28;20047;-82
2022/11/21 08:12:04;;;;;;;1.80;1.10;;;;;;;;;;10232458;28;20051;-82
2022/11/21 08:17:09;;;;;;;4.05;1.55;;;;;;;;;;10221245;28;20145;-82
2022/11/21 08:22:12;;;;;;;2.00;1.15;;;;;;;;;;10229300;28;20050;-81
2022/11/21 08:27:19;;;;;;;4.55;2.30;;;;;;;;;;10217914;28;20067;-82
2022/11/21 08:32:24;;;;;;;2.30;0.90;;;;;;;;;;10220845;28;20077;-81
2022/11/21 08:37:29;;;;;;;2.45;1.13;;;;;;;;;;10237276;28;20712;-81
2022/11/21 08:42:33;;;;;;;2.72;0.95;;;;;;;;;;10236475;28;20047;-81
2022/11/21 08:47:38;;;;;;;2.72;1.20;;;;;;;;;;10238227;28;20718;-81
2022/11/21 08:52:42;;;;;;;2.00;1.00;;;;;;;;;;10236014;28;20048;-81
2022/11/21 08:57:45;;;;;;;2.83;1.00;;;;;;;;;;10234547;28;20047;-81
2022/11/21 09:02:50;;;;;;;2.47;1.00;;;;;;;;;;10233113;28;20054;-81
2022/11/21 09:07:57;;;;;;;2.10;0.90;;;;;;;;;;10233552;28;20159;-81
2022/11/21 09:13:01;;;;;;;2.70;0.80;;;;;;;;;;10233417;28;20051;-83
2022/11/21 09:18:06;;;;;;;0.70;0.57;;;;;;;;;;10244819;28;20134;-81
2022/11/21 09:23:12;;;;;;;1.97;0.87;;;;;;;;;;10229007;28;20051;-82
2022/11/21 09:28:15;;;;;;;1.00;0.60;;;;;;;;;;10228661;28;20044;-81
2022/11/21 09:33:20;;;;;;;1.40;0.95;;;;;;;;;;10229011;28;20320;-82
2022/11/21 09:38:25;;;;;;;2.15;0.77;;;;;;;;;;10233679;28;20119;-81
2022/11/21 09:43:43;;;;;;;1.40;0.70;;;;;;;;;;10228363;28;20053;-81
2022/11/21 09:48:54;;;;;;;1.13;0.68;;;;;;;;;;10228141;28;20059;-81
2022/11/21 09:54:01;;;;;;;3.67;0.93;;;;;;;;;;10228372;28;20054;-81
2022/11/21 09:59:12;;;;;;;2.65;0.90;;;;;;;;;;10227519;28;20050;-82
2022/11/21 10:04:17;;;;;;;2.25;0.82;;;;;;;;;;10225989;28;20069;-80
2022/11/21 10:09:32;;;;;;;2.55;0.80;;;;;;;;;;10225742;28;20539;-80
2022/11/21 10:14:46;;;;;;;1.70;0.82;;;;;;;;;;10226251;28;20058;-80
2022/11/21 10:20:03;;;;;;;3.78;1.02;;;;;;;;;;10225593;28;20417;-81
2022/11/21 10:25:13;;;;;;;2.17;0.80;;;;;;;;;;10217626;28;20058;-81
2022/11/21 10:30:18;;;;;;;3.42;0.90;;;;;;;;;;10225526;28;20042;-80
2022/11/21 10:35:25;;;;;;;1.15;0.82;;;;;;;;;;10221465;28;20051;-81
2022/11/21 10:40:36;;;;;;;2.70;1.45;;;;;;;;;;10228760;28;20443;-81
2022/11/21 10:45:39;;;;;;;2.00;0.90;;;;;;;;;;10263533;28;20047;-80
2022/11/21 10:51:07;;;;;;;1.35;1.00;;;;;;;;;;10234060;28;20065;-81
2022/11/21 10:56:13;;;;;;;2.83;0.75;;;;;;;;;;10222135;28;20043;-80
2022/11/21 11:01:24;;;;;;;;;;;;;;;;;;10230019;28;20478;-81
2022/11/21 11:06:29;;;;;;;1.85;0.85;;;;;;;;;;10246716;28;20275;-81
2022/11/21 11:11:34;;;;;;;4.15;0.70;;;;;;;;;;10227423;28;20054;-81
2022/11/21 11:16:42;;;;;;;3.45;1.10;;;;;;;;;;10246975;28;20054;-81
2022/11/21 11:21:47;;;;;;;1.52;0.77;;;;;;;;;;10228050;28;20058;-80
2022/11/21 11:26:56;;;;;;;1.95;0.60;;;;;;;;;;10218653;28;20448;-81
2022/11/21 11:32:03;;;;;;;3.08;1.15;;;;;;;;;;10231086;28;20046;-81
2022/11/21 11:37:16;;;;;;;1.92;0.90;;;;;;;;;;10232804;28;20078;-81
2022/11/21 11:47:59;;;;;;;1.60;0.82;;;;;;;;;;10245085;28;20051;-81
2022/11/21 11:53:08;;;;;;;3.80;0.87;;;;;;;;;;10233013;28;20507;-81
2022/11/21 11:58:19;;;;;;;2.25;0.90;;;;;;;;;;10249899;28;20519;-82
2022/11/21 12:03:29;;;;;;;1.27;0.82;;;;;;;;;;10257759;28;20059;-81
2022/11/21 12:08:42;;;;;;;1.90;0.73;;;;;;;;;;10261390;28;20058;-83
2022/11/21 12:13:48;;;;;;;2.75;1.02;;;;;;;;;;10254106;28;20430;-83
2022/11/21 12:18:55;;;;;;;1.60;0.80;;;;;;;;;;10235419;28;20814;-82
2022/11/21 12:24:03;;;;;;;1.17;0.45;;;;;;;;;;10245119;28;20046;-83
2022/11/21 12:29:26;;;;;;;2.40;0.75;;;;;;;;;;10237031;28;20059;-83
2022/11/21 12:34:47;;;;;;;5.43;1.58;;;;;;;;;;10228384;28;20043;-82
2022/11/21 12:40:04;;;;;;;1.55;0.60;;;;;;;;;;10236410;28;20039;-83
2022/11/21 12:45:27;;;;;;;2.50;0.98;;;;;;;;;;10227932;28;20138;-83
2022/11/21 12:56:04;;;;;;;1.40;0.50;;;;;;;;;;10230507;28;20069;-84
2022/11/21 13:01:19;;;;;;;1.73;0.88;;;;;;;;;;10231003;28;20685;-83
2022/11/21 13:06:26;;;;;;;1.15;0.60;;;;;;;;;;10231924;28;20047;-83
2022/11/21 13:17:02;;;;;;;0.68;0.50;;;;;;;;;;10223281;28;19922;-83
2022/11/21 13:22:05;;;;;;;0.70;0.50;;;;;;;;;;10228553;28;20150;-82
2022/11/21 13:27:23;;;;;;;1.52;0.50;;;;;;;;;;10249422;28;20065;-83
2022/11/21 13:32:39;;;;;;;2.97;0.70;;;;;;;;;;10228300;28;20051;-82
2022/11/21 13:37:59;;;;;;;;;;;;;;;;;;10235063;28;20424;-82
2022/11/21 13:43:24;;;;;;;0.65;0.43;;;;;;;;;;10226623;28;19928;-83
2022/11/21 13:49:02;;;;;;;1.67;0.70;;;;;;;;;;10228165;28;20047;-83
2022/11/21 13:54:21;;;;;;;1.70;0.75;;;;;;;;;;10223207;28;20049;-83
2022/11/21 13:59:46;;;;;;;0.60;0.40;;;;;;;;;;10236050;28;20415;-83
2022/11/21 14:05:02;;;;;;;2.72;0.60;;;;;;;;;;10230465;28;20678;-84
2022/11/21 14:10:17;;;;;;;1.77;0.52;;;;;;;;;;10224706;28;20058;-82
2022/11/21 14:15:27;;;;;;;0.95;0.60;;;;;;;;;;10243007;28;20070;-82
2022/11/21 14:20:34;;;;;;;2.22;0.60;;;;;;;;;;10219743;28;20063;-82
2022/11/21 14:25:45;;;;;;;1.60;0.80;;;;;;;;;;10229787;28;20043;-83
2022/11/21 14:30:57;;;;;;;4.45;0.90;;;;;;;;;;10226882;28;20275;-84
2022/11/21 14:36:04;;;;;;;2.72;1.02;;;;;;;;;;10250559;28;20078;-83
2022/11/21 14:41:29;;;;;;;2.85;1.30;;;;;;;;;;10234497;28;20047;-83
2022/11/21 14:46:35;;;;;;;4.03;0.90;;;;;;;;;;10238480;28;20570;-82
2022/11/21 14:51:40;;;;;;;2.63;1.02;;;;;;;;;;10228660;28;20039;-82
2022/11/21 14:56:46;;;;;;;3.45;1.08;;;;;;;;;;10240630;28;20043;-82
2022/11/21 15:02:02;;;;;;;5.03;1.80;;;;;;;;;;10226960;28;20050;-82
2022/11/21 15:07:15;;;;;;;;;;;;;;;;;;10259146;28;20062;-82
2022/11/21 15:12:29;;;;;;;4.47;1.92;;;;;;;;;;10223367;28;19950;-82
2022/11/21 15:17:34;;;;;;;2.97;1.58;;;;;;;;;;10233414;28;20051;-83
2022/11/21 15:22:41;;;;;;;3.25;1.63;;;;;;;;;;10258516;28;20049;-82
2022/11/21 15:27:45;;;;;;;4.28;2.20;;;;;;;;;;10236312;28;20047;-83
2022/11/21 15:33:05;;;;;;;3.70;1.70;;;;;;;;;;10237135;28;20047;-83
2022/11/21 15:38:21;;;;;;;6.07;1.95;;;;;;;;;;10255298;28;20043;-82
2022/11/21 15:43:39;;;;;;;4.35;1.70;;;;;;;;;;10236940;28;20058;-82
2022/11/21 15:48:45;;;;;;;1.38;0.93;;;;;;;;;;10233224;28;20055;-82
2022/11/21 15:53:49;;;;;;;2.00;0.93;;;;;;;;;;10232217;28;20051;-82
2022/11/21 15:58:53;;;;;;;2.95;0.90;;;;;;;;;;10257579;28;20062;-82
2022/11/21 16:03:59;;;;;;;2.92;1.35;;;;;;;;;;10234463;28;20058;-82
2022/11/21 16:09:02;;;;;;;2.00;1.42;;;;;;;;;;10239886;28;20690;-83
2022/11/21 16:14:07;;;;;;;2.55;1.40;;;;;;;;;;10221066;28;20527;-82
2022/11/21 16:19:12;;;;;;;2.30;1.17;;;;;;;;;;10217378;28;20043;-82
2022/11/21 16:24:16;;;;;;;2.47;1.30;;;;;;;;;;10219764;28;20053;-82
2022/11/21 16:29:20;;;;;;;2.65;1.20;;;;;;;;;;10234451;28;20291;-81
2022/11/21 16:34:25;;;;;;;2.95;0.93;;;;;;;;;;10224503;28;20111;-81
2022/11/21 16:39:29;;;;;;;3.73;1.30;;;;;;;;;;10261404;28;20511;-82
2022/11/21 16:44:32;;;;;;;3.00;1.40;;;;;;;;;;10233969;28;20047;-81
2022/11/21 16:49:41;;;;;;;4.40;1.60;;;;;;;;;;10247867;28;20043;-82
2022/11/21 16:54:45;;;;;;;3.20;1.63;;;;;;;;;;10234002;28;20138;-81
2022/11/21 16:59:49;;;;;;;5.28;1.80;;;;;;;;;;10214383;28;20062;-82
2022/11/21 17:04:54;;;;;;;2.65;1.15;;;;;;;;;;10213121;28;20063;-81
2022/11/21 17:09:58;;;;;;;2.17;1.42;;;;;;;;;;10211493;28;20046;-81
2022/11/21 17:15:01;;;;;;;4.18;2.50;;;;;;;;;;10238014;28;20043;-81
2022/11/21 17:20:08;;;;;;;3.70;1.55;;;;;;;;;;10213678;28;20043;-81
2022/11/21 17:25:11;;;;;;;3.55;1.60;;;;;;;;;;10231399;28;20337;-80
2022/11/21 17:30:15;;;;;;;2.92;1.45;;;;;;;;;;10213133;28;20044;-80
2022/11/21 17:35:20;;;;;;;4.63;1.67;;;;;;;;;;10205225;28;20047;-81
2022/11/21 17:40:23;;;;;;;2.63;1.20;;;;;;;;;;10206469;28;20518;-81
2022/11/21 17:45:27;;;;;;;6.72;1.52;;;;;;;;;;10230045;28;20061;-80
2022/11/21 17:50:32;;;;;;;6.45;2.20;;;;;;;;;;10209133;28;20035;-82
2022/11/21 17:55:35;;;;;;;4.50;1.40;;;;;;;;;;10237361;28;20039;-81
2022/11/21 18:00:39;;;;;;;5.03;1.42;;;;;;;;;;10229401;28;20166;-82
2022/11/21 18:05:44;;;;;;;4.60;1.70;;;;;;;;;;10221399;28;20090;-81
2022/11/21 18:10:53;;;;;;;2.67;1.75;;;;;;;;;;10228199;28;20503;-82
2022/11/21 18:15:59;;;;;;;4.32;1.52;;;;;;;;;;10228534;28;20054;-80
2022/11/21 18:21:05;;;;;;;2.13;1.25;;;;;;;;;;10221460;28;20495;-82
2022/11/21 18:26:12;;;;;;;3.53;1.08;;;;;;;;;;10236811;28;20134;-81
2022/11/21 18:31:17;;;;;;;3.90;1.10;;;;;;;;;;10213861;28;20112;-82
2022/11/21 18:36:24;;;;;;;2.37;1.00;;;;;;;;;;10218037;28;20664;-80
2022/11/21 18:41:30;;;;;;;2.53;1.00;;;;;;;;;;10213541;28;20643;-82
2022/11/21 18:46:36;;;;;;;3.33;1.40;;;;;;;;;;10232611;28;20043;-81
2022/11/21 18:51:41;;;;;;;4.43;1.00;;;;;;;;;;10219375;28;20054;-81
2022/11/21 18:56:45;;;;;;;3.87;1.23;;;;;;;;;;10220338;28;20054;-83
2022/11/21 19:01:50;;;;;;;2.38;1.33;;;;;;;;;;10243023;28;20055;-81
2022/11/21 19:06:55;;;;;;;3.20;1.33;;;;;;;;;;10210495;28;20047;-81
2022/11/21 19:11:58;;;;;;;1.88;0.80;;;;;;;;;;10213265;28;20580;-82
2022/11/21 19:17:01;;;;;;;3.80;1.15;;;;;;;;;;10241513;28;20077;-82
2022/11/21 19:22:07;;;;;;;2.33;0.98;;;;;;;;;;10243712;28;20086;-82
2022/11/21 19:27:11;;;;;;;2.33;1.20;;;;;;;;;;10239398;28;20055;-81
2022/11/21 19:32:14;;;;;;;3.30;1.27;;;;;;;;;;10235600;28;20168;-81
2022/11/21 19:37:19;;;;;;;2.25;1.08;;;;;;;;;;10238972;28;20062;-81
2022/11/21 19:42:22;;;;;;;5.38;1.50;;;;;;;;;;10213408;28;20486;-81
2022/11/21 19:47:26;;;;;;;3.58;1.60;;;;;;;;;;10222150;28;20140;-81
2022/11/21 19:52:30;;;;;;;2.95;1.27;;;;;;;;;;10208467;28;20058;-82
2022/11/21 19:57:37;;;;;;;3.17;1.65;;;;;;;;;;10208807;28;20047;-81
2022/11/21 20:02:40;;;;;;;2.75;1.30;;;;;;;;;;10238333;28;20452;-82
2022/11/21 20:07:45;;;;;;;5.45;1.63;;;;;;;;;;10226022;28;20047;-82
2022/11/21 20:12:49;;;;;;;3.50;1.33;;;;;;;;;;10227928;28;20051;-81
2022/11/21 20:17:52;;;;;;;3.15;1.10;;;;;;;;;;10223743;28;20122;-81
2022/11/21 20:22:57;;;;;;;1.90;1.10;;;;;;;;;;10220173;28;20134;-81
2022/11/21 20:28:01;;;;;;;4.20;1.60;;;;;;;;;;10218218;28;20058;-81
2022/11/21 20:33:04;;;;;;;1.85;1.00;;;;;;;;;;10223156;28;20693;-81
2022/11/21 20:38:14;;;;;;;6.43;1.60;;;;;;;;;;10224194;28;21214;-81
2022/11/21 20:43:20;;;;;;;1.67;1.05;;;;;;;;;;10218778;28;20043;-81
2022/11/21 20:48:23;;;;;;;1.63;0.90;;;;;;;;;;10237068;28;20043;-82
2022/11/21 20:53:28;;;;;;;2.67;1.42;;;;;;;;;;10215007;28;20062;-81
2022/11/21 20:58:52;;;;;;;5.05;1.40;;;;;;;;;;10180218;29;20226;-86
2022/11/21 21:03:56;;;;;;;2.47;0.90;;;;;;;;;;10162159;29;20044;-84
2022/11/21 21:09:00;;;;;;;2.60;1.30;;;;;;;;;;10170026;29;20056;-86
2022/11/21 21:14:04;;;;;;;4.38;1.23;;;;;;;;;;10169700;29;20054;-85
2022/11/21 21:19:07;;;;;;;2.65;1.10;;;;;;;;;;10170198;29;20055;-85
2022/11/21 21:24:13;;;;;;;2.72;1.17;;;;;;;;;;10171668;29;20047;-84
2022/11/21 21:29:18;;;;;;;1.45;0.90;;;;;;;;;;10171606;29;20052;-84
2022/11/21 21:34:23;;;;;;;2.25;1.17;;;;;;;;;;10161781;29;20052;-84
2022/11/21 21:39:27;;;;;;;3.15;1.42;;;;;;;;;;10168929;29;20047;-84
2022/11/21 21:44:31;;;;;;;3.53;1.30;;;;;;;;;;10167677;29;20504;-85
2022/11/21 21:49:35;;;;;;;2.53;1.05;;;;;;;;;;10166065;29;20496;-84
2022/11/21 21:54:40;;;;;;;2.22;1.17;;;;;;;;;;10172295;28;20050;-85
2022/11/21 21:59:43;;;;;;;3.33;1.60;;;;;;;;;;10230096;28;20050;-85
2022/11/21 22:04:47;;;;;;;1.95;1.30;;;;;;;;;;10206331;28;20101;-85
2022/11/21 22:09:55;;;;;;;1.52;1.10;;;;;;;;;;10200624;28;20043;-85
2022/11/21 22:14:58;;;;;;;1.58;1.08;;;;;;;;;;10219728;28;20685;-84
2022/11/21 22:20:04;;;;;;;2.15;1.15;;;;;;;;;;10221115;28;20058;-84
2022/11/21 22:25:10;;;;;;;2.10;1.15;;;;;;;;;;10221878;28;20090;-83
2022/11/21 22:30:14;;;;;;;4.63;1.25;;;;;;;;;;10219363;28;20138;-85
2022/11/21 22:35:17;;;;;;;2.17;1.30;;;;;;;;;;10205221;28;20518;-84
2022/11/21 22:40:22;;;;;;;1.42;1.00;;;;;;;;;;10212333;28;20404;-84
2022/11/21 22:45:25;;;;;;;1.75;0.90;;;;;;;;;;10211580;28;20093;-84
2022/11/21 22:50:29;;;;;;;1.48;0.90;;;;;;;;;;10204806;28;20650;-85
2022/11/21 22:55:34;;;;;;;2.78;1.20;;;;;;;;;;10216957;28;20043;-84
2022/11/21 23:00:38;;;;;;;1.88;1.15;;;;;;;;;;10203504;28;20047;-84
2022/11/21 23:05:41;;;;;;;1.35;0.70;;;;;;;;;;10200030;28;20047;-84
2022/11/21 23:10:46;;;;;;;2.97;0.95;;;;;;;;;;10226206;28;20069;-85
2022/11/21 23:15:49;;;;;;;2.63;1.00;;;;;;;;;;10234202;28;20073;-84
2022/11/21 23:20:53;;;;;;;1.02;0.80;;;;;;;;;;10192558;28;20051;-84
2022/11/21 23:25:58;;;;;;;2.58;1.10;;;;;;;;;;10212840;28;20055;-84
2022/11/21 23:31:01;;;;;;;2.20;1.13;;;;;;;;;;10211065;28;20051;-84
2022/11/21 23:36:05;;;;;;;1.48;1.02;;;;;;;;;;10211041;28;20043;-84
2022/11/21 23:41:10;;;;;;;2.63;1.23;;;;;;;;;;10211408;28;20069;-83
2022/11/21 23:46:13;;;;;;;4.38;1.15;;;;;;;;;;10219327;28;20039;-84
2022/11/21 23:51:17;;;;;;;1.95;0.80;;;;;;;;;;10210904;28;20047;-83
2022/11/21 23:56:22;;;;;;;1.50;0.90;;;;;;;;;;10209483;28;20047;-83
